Time;durP1;ratioP1;P1;durP2;ratioP2;P2;SDS_P1;SDS_P2;PMS_P1;PMS_P2;Temp;Humidity;BMP_temperature;BMP_pressure;BME280_temperature;BME280_humidity;BME280_pressure;Samples;Min_cycle;Max_cycle;Signal;HPM_P1;HPM_P2
2021/12/15 00:01:27;;;;;;;45.25;27.13;;;10.40;99.90;;;;;;5030811;28;20026;-45
2021/12/15 00:03:54;;;;;;;45.85;28.23;;;10.40;99.90;;;;;;5040123;28;20436;-43
2021/12/15 00:06:20;;;;;;;46.38;27.08;;;10.50;99.90;;;;;;5030555;28;20033;-44
2021/12/15 00:08:51;;;;;;;50.25;30.02;;;10.50;99.90;;;;;;5040717;28;20025;-45
2021/12/15 00:11:17;;;;;;;46.90;29.08;;;10.50;99.90;;;;;;5029840;28;20036;-42
2021/12/15 00:13:44;;;;;;;40.95;26.63;;;10.50;99.90;;;;;;5040443;28;20475;-42
2021/12/15 00:16:11;;;;;;;42.03;27.50;;;10.50;99.90;;;;;;5029792;28;20030;-44
2021/12/15 00:18:41;;;;;;;48.85;29.90;;;10.50;99.90;;;;;;5041002;28;20056;-44
2021/12/15 00:21:08;;;;;;;44.50;26.23;;;10.50;99.90;;;;;;5029057;28;20141;-44
2021/12/15 00:23:34;;;;;;;40.13;27.30;;;10.50;99.90;;;;;;5040802;28;20499;-44
2021/12/15 00:26:00;;;;;;;39.50;27.60;;;10.40;99.90;;;;;;5049063;28;20044;-42
2021/12/15 00:28:26;;;;;;;45.95;30.45;;;10.40;99.90;;;;;;5038289;28;20028;-43
2021/12/15 00:30:51;;;;;;;49.47;31.77;;;10.40;99.90;;;;;;5046075;28;20029;-43
2021/12/15 00:33:17;;;;;;;44.15;28.23;;;10.40;99.90;;;;;;5041432;28;20067;-42
2021/12/15 00:35:43;;;;;;;47.75;30.67;;;10.40;99.90;;;;;;5043141;28;20036;-43
2021/12/15 00:38:08;;;;;;;44.45;28.23;;;10.40;99.90;;;;;;5043910;28;20113;-43
2021/12/15 00:40:36;;;;;;;43.53;28.45;;;10.40;99.90;;;;;;5040850;28;20020;-43
2021/12/15 00:43:02;;;;;;;36.92;25.05;;;10.40;99.90;;;;;;5045318;28;20056;-42
2021/12/15 00:45:28;;;;;;;44.22;27.67;;;10.30;99.90;;;;;;5038565;28;20025;-44
2021/12/15 00:47:54;;;;;;;44.17;28.40;;;10.40;99.90;;;;;;5046916;28;20021;-44
2021/12/15 00:50:22;;;;;;;42.92;27.02;;;10.40;99.90;;;;;;5037380;28;20032;-43
2021/12/15 00:52:48;;;;;;;44.63;27.13;;;10.40;99.90;;;;;;5047016;28;20075;-43
2021/12/15 00:55:18;;;;;;;48.70;30.05;;;10.40;99.90;;;;;;5037210;28;20024;-43
2021/12/15 00:57:44;;;;;;;46.92;28.90;;;10.40;99.90;;;;;;5048763;28;20101;-43
2021/12/15 01:00:14;;;;;;;42.25;27.17;;;10.40;99.90;;;;;;5034987;28;20025;-44
2021/12/15 01:02:40;;;;;;;39.67;25.67;;;10.40;99.90;;;;;;5047813;28;20028;-43
2021/12/15 01:05:08;;;;;;;41.28;26.65;;;10.40;99.90;;;;;;5035271;28;20033;-43
2021/12/15 01:07:34;;;;;;;43.47;27.38;;;10.40;99.90;;;;;;5047899;28;20396;-44
2021/12/15 01:10:00;;;;;;;42.47;26.42;;;10.40;99.90;;;;;;5036143;28;20017;-43
2021/12/15 01:20:29;;;;;;;45.92;28.55;;;10.40;99.90;;;;;;5036158;28;20040;-43
2021/12/15 01:22:57;;;;;;;44.65;28.45;;;10.40;99.90;;;;;;5027953;28;20436;-43
2021/12/15 01:25:31;;;;;;;48.38;29.00;;;10.40;99.90;;;;;;5037329;28;20025;-43
2021/12/15 01:27:57;;;;;;;38.13;25.15;;;10.40;99.90;;;;;;5028635;28;20655;-43
2021/12/15 01:30:27;;;;;;;43.05;27.45;;;10.40;99.90;;;;;;5036380;28;20100;-43
2021/12/15 01:32:57;;;;;;;42.20;26.35;;;10.40;99.90;;;;;;5031064;28;20051;-42
2021/12/15 01:35:23;;;;;;;52.05;29.90;;;10.40;99.90;;;;;;5034807;28;20035;-43
2021/12/15 01:37:49;;;;;;;44.22;28.25;;;10.40;99.90;;;;;;5031907;28;20033;-44
2021/12/15 01:40:28;;;;;;;44.15;27.58;;;10.40;99.90;;;;;;5032608;28;20079;-43
2021/12/15 01:42:54;;;;;;;46.33;28.00;;;10.40;99.90;;;;;;5043436;28;20111;-43
2021/12/15 01:48:08;;;;;;;43.22;27.20;;;10.40;99.90;;;;;;5041691;28;20408;-43
2021/12/15 01:50:34;;;;;;;48.28;30.50;;;10.40;99.90;;;;;;5042579;28;20068;-42
2021/12/15 01:53:00;;;;;;;49.63;30.80;;;10.40;99.90;;;;;;5038966;28;20021;-42
2021/12/15 01:55:26;;;;;;;50.50;31.27;;;10.40;99.90;;;;;;5042285;28;20037;-42
2021/12/15 01:57:52;;;;;;;47.58;29.55;;;10.40;99.90;;;;;;5037382;28;20062;-43
2021/12/15 02:00:31;;;;;;;41.80;26.10;;;10.40;99.90;;;;;;5027757;28;20017;-42
2021/12/15 02:02:57;;;;;;;53.53;33.20;;;10.40;99.90;;;;;;5035786;28;20794;-42
2021/12/15 02:05:25;;;;;;;46.22;29.15;;;10.40;99.90;;;;;;5045278;28;20037;-43
2021/12/15 02:07:50;;;;;;;46.88;29.48;;;10.40;99.90;;;;;;5035172;28;20029;-43
2021/12/15 02:10:19;;;;;;;50.65;30.42;;;10.50;99.90;;;;;;5046611;28;20162;-43
2021/12/15 02:12:45;;;;;;;53.42;32.08;;;10.40;99.90;;;;;;5033915;28;20477;-44
2021/12/15 02:15:17;;;;;;;54.33;32.70;;;10.40;99.90;;;;;;5047205;28;20801;-43
2021/12/15 02:17:44;;;;;;;55.88;34.22;;;10.40;99.90;;;;;;5034170;28;20035;-43
2021/12/15 02:20:12;;;;;;;53.55;33.55;;;10.40;99.90;;;;;;5046082;28;20053;-43
2021/12/15 02:22:38;;;;;;;56.45;34.33;;;10.40;99.90;;;;;;5034192;28;20100;-44
2021/12/15 02:25:08;;;;;;;55.80;33.65;;;10.40;99.90;;;;;;5047042;28;20127;-43
2021/12/15 02:27:35;;;;;;;52.90;33.42;;;10.40;99.90;;;;;;5034433;28;20025;-43
2021/12/15 02:30:25;;;;;;;54.20;33.25;;;10.40;99.90;;;;;;5046071;28;20071;-43
2021/12/15 02:33:11;;;;;;;50.30;31.58;;;10.40;99.90;;;;;;5033920;28;20537;-43
2021/12/15 02:38:33;;;;;;;50.75;32.70;;;10.40;99.90;;;;;;5038833;28;20392;-42
2021/12/15 02:41:06;;;;;;;55.03;33.38;;;10.40;99.90;;;;;;5026457;28;20030;-43
2021/12/15 02:43:33;;;;;;;54.17;33.50;;;10.30;99.90;;;;;;5038558;28;20033;-43
2021/12/15 02:45:58;;;;;;;54.67;33.33;;;10.40;99.90;;;;;;5026582;28;20040;-43
2021/12/15 02:48:24;;;;;;;51.67;32.63;;;10.30;99.90;;;;;;5038518;28;20033;-42
2021/12/15 02:50:52;;;;;;;48.22;31.92;;;10.30;99.90;;;;;;5026715;28;20115;-43
2021/12/15 02:53:18;;;;;;;55.92;34.20;;;10.40;99.90;;;;;;5035720;28;20544;-43
2021/12/15 02:55:43;;;;;;;52.58;32.65;;;10.40;99.90;;;;;;5026096;28;20159;-43
2021/12/15 02:58:10;;;;;;;50.25;32.17;;;10.30;99.90;;;;;;5033867;28;20175;-43
2021/12/15 03:00:59;;;;;;;52.28;32.30;;;10.30;99.90;;;;;;5031127;28;20068;-44
2021/12/15 03:06:15;;;;;;;52.80;32.05;;;10.40;99.90;;;;;;5029642;28;20048;-44
2021/12/15 03:16:43;;;;;;;46.30;28.52;;;10.30;99.90;;;;;;5005866;28;20048;-42
2021/12/15 03:19:10;;;;;;;44.60;28.08;;;10.30;99.90;;;;;;5030491;28;20156;-43
2021/12/15 03:21:35;;;;;;;46.92;28.90;;;10.30;99.90;;;;;;5028775;28;20116;-44
2021/12/15 03:24:12;;;;;;;46.65;28.75;;;10.30;99.90;;;;;;5034565;28;20417;-44
2021/12/15 03:26:45;;;;;;;45.10;28.08;;;10.40;99.90;;;;;;5033318;28;20086;-42
2021/12/15 03:35:17;;;;;;;47.58;28.27;;;10.40;99.90;;;;;;5038806;28;20127;-42
2021/12/15 03:37:53;;;;;;;46.03;28.20;;;10.40;99.90;;;;;;5009276;28;20112;-43
2021/12/15 03:40:41;;;;;;;47.60;29.25;;;10.40;99.90;;;;;;5040876;28;20029;-42
2021/12/15 03:43:10;;;;;;;54.20;34.40;;;10.30;99.90;;;;;;5030130;28;20473;-42
2021/12/15 03:45:43;;;;;;;53.88;33.65;;;10.30;99.90;;;;;;5040834;28;20116;-43
2021/12/15 03:48:13;;;;;;;50.10;31.17;;;10.30;99.90;;;;;;5029432;28;20758;-43
2021/12/15 03:50:40;;;;;;;49.05;30.20;;;10.30;99.90;;;;;;5042435;28;20029;-43
2021/12/15 03:53:05;;;;;;;46.70;29.60;;;10.30;99.90;;;;;;5028757;28;20455;-43
2021/12/15 03:55:33;;;;;;;50.58;31.58;;;10.30;99.90;;;;;;5037294;28;20025;-43
2021/12/15 03:58:01;;;;;;;49.80;29.90;;;10.30;99.90;;;;;;5048715;28;20045;-43
2021/12/15 04:00:29;;;;;;;47.08;28.77;;;10.30;99.90;;;;;;5039078;28;20440;-42
2021/12/15 04:02:55;;;;;;;43.08;27.90;;;10.30;99.90;;;;;;5046935;28;20100;-42
2021/12/15 04:05:21;;;;;;;45.47;27.85;;;10.30;99.90;;;;;;5041224;28;20147;-43
2021/12/15 04:07:49;;;;;;;49.75;29.65;;;10.30;99.90;;;;;;5043942;28;20024;-43
2021/12/15 04:10:24;;;;;;;47.80;28.63;;;10.30;99.90;;;;;;5044261;28;20045;-43
2021/12/15 04:12:50;;;;;;;48.13;28.63;;;10.30;99.90;;;;;;5042897;28;20029;-43
2021/12/15 04:15:25;;;;;;;48.30;28.65;;;10.30;99.90;;;;;;5036180;28;20440;-43
2021/12/15 04:17:55;;;;;;;49.30;30.75;;;10.30;99.90;;;;;;5036342;28;20061;-43
2021/12/15 04:20:23;;;;;;;48.92;29.42;;;10.30;99.90;;;;;;5031253;28;20044;-43
2021/12/15 04:22:49;;;;;;;50.55;29.95;;;10.30;99.90;;;;;;5038437;28;20171;-43
2021/12/15 04:25:21;;;;;;;47.13;27.98;;;10.30;99.90;;;;;;5030676;28;20121;-44
2021/12/15 04:27:51;;;;;;;40.20;25.60;;;10.30;99.90;;;;;;5026413;28;20033;-43
2021/12/15 04:30:17;;;;;;;46.47;27.17;;;10.30;99.90;;;;;;5048017;28;20055;-43
2021/12/15 04:32:47;;;;;;;49.97;27.75;;;10.30;99.90;;;;;;5037622;28;20361;-43
2021/12/15 04:35:13;;;;;;;45.45;27.88;;;10.30;99.90;;;;;;5046426;28;20100;-42
2021/12/15 04:37:40;;;;;;;46.22;28.63;;;10.30;99.90;;;;;;5039994;28;20030;-42
2021/12/15 04:40:08;;;;;;;50.22;30.50;;;10.30;99.90;;;;;;5029068;28;20056;-43
2021/12/15 04:42:37;;;;;;;48.92;30.05;;;10.30;99.90;;;;;;5040182;28;20109;-43
2021/12/15 04:45:03;;;;;;;49.47;29.65;;;10.30;99.90;;;;;;5028334;28;20489;-43
2021/12/15 04:47:29;;;;;;;52.90;31.25;;;10.30;99.90;;;;;;5040431;28;20488;-43
2021/12/15 04:49:56;;;;;;;45.70;27.92;;;10.30;99.90;;;;;;5028446;28;20393;-44
2021/12/15 04:52:25;;;;;;;49.13;28.23;;;10.30;99.90;;;;;;5039573;28;20028;-43
2021/12/15 04:54:51;;;;;;;44.25;26.60;;;10.30;99.90;;;;;;5029221;28;20391;-44
2021/12/15 04:57:19;;;;;;;46.33;28.85;;;10.30;99.90;;;;;;5037536;28;20032;-42
2021/12/15 04:59:46;;;;;;;44.20;25.67;;;10.30;99.90;;;;;;5031351;28;20033;-43
2021/12/15 05:02:13;;;;;;;44.92;25.80;;;10.30;99.90;;;;;;5035013;28;20060;-43
2021/12/15 05:04:42;;;;;;;44.05;26.17;;;10.30;99.90;;;;;;5033806;28;20040;-44
2021/12/15 05:07:09;;;;;;;36.70;23.27;;;10.30;99.90;;;;;;5032964;28;20024;-43
2021/12/15 05:09:36;;;;;;;33.67;21.25;;;10.30;99.90;;;;;;5034965;28;20127;-43
2021/12/15 05:12:02;;;;;;;39.67;24.17;;;10.40;99.90;;;;;;5030380;28;20036;-43
2021/12/15 05:14:28;;;;;;;42.70;24.95;;;10.40;99.90;;;;;;5037599;28;20032;-44
2021/12/15 05:16:54;;;;;;;45.33;26.27;;;10.40;99.90;;;;;;5028868;28;20025;-43
2021/12/15 05:19:21;;;;;;;44.38;26.38;;;10.40;99.90;;;;;;5038921;28;20512;-43
2021/12/15 05:21:52;;;;;;;45.10;26.83;;;10.40;99.90;;;;;;5028619;28;20558;-43
2021/12/15 05:24:37;;;;;;;46.00;27.08;;;10.40;99.90;;;;;;5039098;28;20048;-43
2021/12/15 05:27:09;;;;;;;44.35;26.42;;;10.40;99.90;;;;;;5029923;28;20021;-43
2021/12/15 05:29:35;;;;;;;41.22;25.33;;;10.40;99.90;;;;;;5038569;28;20021;-43
2021/12/15 05:32:00;;;;;;;46.28;28.85;;;10.50;99.90;;;;;;5028106;28;20548;-43
2021/12/15 05:34:26;;;;;;;40.20;25.20;;;10.40;99.90;;;;;;5039863;28;20036;-43
2021/12/15 05:36:53;;;;;;;50.00;28.60;;;10.40;99.90;;;;;;5027631;28;20025;-42
2021/12/15 05:39:20;;;;;;;41.20;26.50;;;10.40;99.90;;;;;;5034771;28;20057;-42
2021/12/15 05:41:46;;;;;;;40.45;24.60;;;10.40;99.90;;;;;;5047403;28;20556;-42
2021/12/15 05:44:12;;;;;;;41.47;25.52;;;10.40;99.90;;;;;;5034774;28;20195;-43
2021/12/15 05:46:37;;;;;;;43.85;26.77;;;10.50;99.90;;;;;;5046500;28;20021;-43
2021/12/15 05:49:04;;;;;;;39.50;25.75;;;10.50;99.90;;;;;;5037423;28;20021;-43
2021/12/15 05:51:30;;;;;;;42.90;26.48;;;10.50;99.90;;;;;;5043942;28;20230;-43
2021/12/15 05:53:55;;;;;;;48.10;27.80;;;10.50;99.90;;;;;;5039859;28;20532;-43
2021/12/15 05:56:21;;;;;;;40.80;25.67;;;10.50;99.90;;;;;;5043163;28;20025;-43
2021/12/15 05:58:47;;;;;;;44.17;28.45;;;10.50;99.90;;;;;;5041877;28;20013;-43
2021/12/15 06:01:13;;;;;;;38.80;24.77;;;10.50;99.90;;;;;;5038683;28;20475;-43
2021/12/15 06:03:38;;;;;;;47.03;27.95;;;10.50;99.90;;;;;;5031454;28;20075;-43
2021/12/15 06:06:04;;;;;;;38.58;23.90;;;10.50;99.90;;;;;;5035707;28;20037;-43
2021/12/15 06:08:30;;;;;;;45.22;25.77;;;10.50;99.90;;;;;;5046147;28;20487;-43
2021/12/15 06:10:56;;;;;;;44.30;26.17;;;10.50;99.90;;;;;;5035443;28;20021;-43
2021/12/15 06:13:23;;;;;;;40.30;25.08;;;10.50;99.90;;;;;;5046419;28;20518;-46
2021/12/15 06:15:49;;;;;;;45.08;27.58;;;10.50;99.90;;;;;;5035123;28;20017;-44
2021/12/15 06:18:17;;;;;;;43.67;28.30;;;10.50;99.90;;;;;;5047551;28;20031;-43
2021/12/15 06:20:44;;;;;;;42.60;25.30;;;10.50;99.90;;;;;;5032963;28;20508;-43
2021/12/15 06:23:17;;;;;;;48.17;27.65;;;10.50;99.90;;;;;;5046843;28;20076;-43
2021/12/15 06:25:44;;;;;;;49.92;27.75;;;10.50;99.90;;;;;;5034368;28;20041;-43
2021/12/15 06:28:10;;;;;;;48.63;29.17;;;10.50;99.90;;;;;;5042755;28;20026;-43
2021/12/15 06:30:37;;;;;;;47.05;28.90;;;10.50;99.90;;;;;;5037827;28;20031;-42
2021/12/15 06:33:04;;;;;;;46.72;27.70;;;10.50;99.90;;;;;;5027583;28;20500;-44
2021/12/15 06:35:30;;;;;;;46.70;29.02;;;10.50;99.90;;;;;;5034803;28;20487;-44
2021/12/15 06:37:56;;;;;;;43.55;26.55;;;10.50;99.90;;;;;;5031137;28;20049;-43
2021/12/15 06:40:21;;;;;;;43.13;26.05;;;10.50;99.90;;;;;;5031723;28;20068;-44
2021/12/15 06:42:47;;;;;;;43.90;26.85;;;10.50;99.90;;;;;;5032856;28;20022;-43
2021/12/15 06:45:18;;;;;;;45.65;28.27;;;10.50;99.90;;;;;;5030172;28;20472;-43
2021/12/15 06:58:24;;;;;;;51.13;30.38;;;10.50;99.90;;;;;;5031212;28;20079;-43
2021/12/15 07:00:54;;;;;;;49.70;28.80;;;10.50;99.90;;;;;;5034292;28;20465;-43
2021/12/15 07:03:21;;;;;;;45.10;27.08;;;10.50;99.90;;;;;;5039277;28;20394;-42
2021/12/15 07:05:47;;;;;;;45.53;27.05;;;10.50;99.90;;;;;;5047091;28;20056;-44
2021/12/15 07:08:13;;;;;;;47.17;28.42;;;10.50;99.90;;;;;;5039500;28;20052;-43
2021/12/15 07:10:45;;;;;;;50.47;29.45;;;10.50;99.90;;;;;;5048020;28;20120;-42
2021/12/15 07:13:11;;;;;;;47.38;28.38;;;10.50;99.90;;;;;;5038184;28;20021;-44
2021/12/15 07:15:38;;;;;;;46.55;27.10;;;10.50;99.90;;;;;;5047890;28;20107;-44
2021/12/15 07:18:08;;;;;;;51.30;29.83;;;10.60;99.90;;;;;;5038345;28;20025;-43
2021/12/15 07:20:45;;;;;;;49.05;28.73;;;10.60;99.90;;;;;;5049020;28;20427;-44
2021/12/15 07:23:28;;;;;;;43.47;26.17;;;10.60;99.90;;;;;;5037976;28;20032;-42
2021/12/15 07:25:54;;;;;;;53.42;30.25;;;10.60;99.90;;;;;;5048610;28;20059;-43
2021/12/15 07:28:21;;;;;;;47.85;28.17;;;10.60;99.90;;;;;;5039201;28;20650;-42
2021/12/15 07:30:48;;;;;;;52.60;28.88;;;10.60;99.90;;;;;;5049124;28;20080;-45
2021/12/15 07:33:15;;;;;;;50.05;29.70;;;10.50;99.90;;;;;;5037560;28;20056;-43
2021/12/15 07:35:41;;;;;;;51.90;28.73;;;10.60;99.90;;;;;;5049779;28;20045;-43
2021/12/15 07:38:08;;;;;;;50.30;29.10;;;10.60;99.90;;;;;;5036816;28;20034;-43
2021/12/15 07:40:34;;;;;;;58.30;31.63;;;10.60;99.90;;;;;;5049819;28;20033;-44
2021/12/15 07:45:32;;;;;;;53.63;30.30;;;10.50;99.90;;;;;;5047732;28;20531;-43
2021/12/15 07:47:59;;;;;;;61.50;32.08;;;10.50;99.90;;;;;;5040597;28;20018;-43
2021/12/15 07:50:27;;;;;;;59.53;31.55;;;10.60;99.90;;;;;;5029084;28;20025;-43
2021/12/15 07:52:53;;;;;;;56.75;31.13;;;10.50;99.90;;;;;;5036072;28;20751;-42
2021/12/15 07:55:19;;;;;;;62.20;31.15;;;10.60;99.90;;;;;;5032023;28;20025;-42
2021/12/15 07:57:45;;;;;;;52.00;28.05;;;10.60;99.90;;;;;;5033169;28;20036;-42
2021/12/15 08:00:13;;;;;;;55.55;30.42;;;10.60;99.90;;;;;;5038150;28;20040;-42
2021/12/15 08:02:38;;;;;;;53.35;28.67;;;10.60;99.90;;;;;;5030915;28;20030;-42
2021/12/15 08:05:05;;;;;;;70.03;33.97;;;10.60;99.90;;;;;;5039464;28;20087;-43
2021/12/15 08:07:31;;;;;;;63.53;31.80;;;10.60;99.90;;;;;;5030783;28;20029;-43
2021/12/15 08:09:57;;;;;;;60.70;29.95;;;10.60;99.90;;;;;;5039621;28;20454;-43
2021/12/15 08:12:23;;;;;;;54.67;28.35;;;10.60;99.90;;;;;;5028795;28;20423;-43
2021/12/15 08:14:48;;;;;;;62.25;31.50;;;10.60;99.90;;;;;;5041238;28;20022;-43
2021/12/15 08:17:15;;;;;;;60.35;30.10;;;10.60;99.90;;;;;;5029552;28;20018;-43
2021/12/15 08:19:41;;;;;;;61.15;30.35;;;10.60;99.90;;;;;;5040782;28;20136;-42
2021/12/15 08:22:07;;;;;;;59.92;28.70;;;10.60;99.90;;;;;;5029386;28;20025;-43
2021/12/15 08:24:33;;;;;;;61.80;30.48;;;10.60;99.90;;;;;;5040870;28;20028;-43
2021/12/15 08:26:58;;;;;;;67.78;32.67;;;10.70;99.90;;;;;;5029204;28;20030;-43
2021/12/15 08:29:24;;;;;;;62.67;32.60;;;10.70;99.90;;;;;;5038261;28;20476;-44
2021/12/15 08:31:50;;;;;;;62.03;31.65;;;10.70;99.90;;;;;;5031897;28;20029;-43
2021/12/15 08:34:15;;;;;;;59.70;32.47;;;10.70;99.90;;;;;;5034691;28;20055;-43
2021/12/15 08:36:41;;;;;;;58.92;29.55;;;10.70;99.90;;;;;;5035121;28;20148;-43
2021/12/15 08:39:08;;;;;;;63.47;30.55;;;10.70;99.90;;;;;;5032701;28;20070;-43
2021/12/15 08:41:35;;;;;;;63.88;31.13;;;10.70;99.90;;;;;;5035810;28;20476;-43
2021/12/15 08:44:06;;;;;;;66.18;31.73;;;10.70;99.90;;;;;;5030589;28;20017;-42
2021/12/15 08:46:34;;;;;;;56.97;29.17;;;10.70;99.90;;;;;;5038029;28;20473;-43
2021/12/15 08:49:00;;;;;;;72.78;35.28;;;10.70;99.90;;;;;;5028329;28;20021;-43
2021/12/15 08:51:28;;;;;;;66.97;33.53;;;10.70;99.90;;;;;;5040525;28;20043;-43
2021/12/15 08:54:04;;;;;;;61.33;31.48;;;10.70;99.90;;;;;;5032442;28;20032;-43
2021/12/15 08:56:31;;;;;;;66.47;33.08;;;10.70;99.90;;;;;;5037927;28;20112;-44
2021/12/15 08:58:57;;;;;;;70.47;32.42;;;10.80;99.90;;;;;;5047792;28;20391;-43
2021/12/15 09:01:24;;;;;;;59.20;30.13;;;10.80;99.90;;;;;;5035593;28;20461;-43
2021/12/15 09:03:49;;;;;;;65.38;32.03;;;10.80;99.90;;;;;;5048572;28;20052;-42
2021/12/15 09:06:15;;;;;;;67.18;31.60;;;10.80;99.90;;;;;;5035867;28;20037;-42
2021/12/15 09:08:42;;;;;;;57.72;30.35;;;10.80;99.90;;;;;;5047815;28;20028;-42
2021/12/15 09:11:11;;;;;;;67.47;32.90;;;10.80;99.90;;;;;;5035995;28;20033;-42
2021/12/15 09:13:37;;;;;;;70.40;34.33;;;10.80;99.90;;;;;;5028348;28;20079;-43
2021/12/15 09:16:06;;;;;;;61.53;32.22;;;10.80;99.90;;;;;;5037115;28;20158;-43
2021/12/15 09:18:32;;;;;;;65.47;32.85;;;10.80;99.90;;;;;;5029885;28;20038;-41
2021/12/15 09:20:59;;;;;;;53.55;27.85;;;10.80;99.90;;;;;;5035706;28;20136;-43
2021/12/15 09:23:25;;;;;;;57.03;29.48;;;10.90;99.90;;;;;;5030884;28;20051;-43
2021/12/15 09:25:51;;;;;;;64.47;30.77;;;10.90;99.90;;;;;;5031921;28;20040;-43
2021/12/15 09:28:19;;;;;;;61.67;30.67;;;10.90;99.90;;;;;;5035507;28;20021;-43
2021/12/15 09:30:48;;;;;;;62.25;30.23;;;10.90;99.90;;;;;;5030358;28;20049;-43
2021/12/15 09:33:20;;;;;;;71.70;35.55;;;10.90;99.90;;;;;;5036383;28;20370;-44
2021/12/15 09:35:47;;;;;;;63.45;31.58;;;10.90;99.90;;;;;;5029309;28;20180;-44
2021/12/15 09:38:15;;;;;;;57.15;29.42;;;10.90;99.90;;;;;;5038331;28;20125;-43
2021/12/15 09:40:41;;;;;;;49.28;25.83;;;10.90;99.90;;;;;;5028946;28;20400;-43
2021/12/15 09:43:09;;;;;;;49.72;25.30;;;11.00;99.90;;;;;;5038239;28;20060;-44
2021/12/15 09:56:24;;;;;;;62.95;30.55;;;11.00;99.90;;;;;;5037130;28;20116;-43
2021/12/15 10:04:50;;;;;;;58.90;31.00;;;11.00;99.90;;;;;;5039978;28;20049;-42
2021/12/15 10:10:38;;;;;;;60.40;29.92;;;11.00;99.90;;;;;;5041666;28;20029;-43
2021/12/15 10:20:53;;;;;;;64.43;35.25;;;11.10;99.90;;;;;;5027110;28;20049;-44
2021/12/15 10:23:24;;;;;;;61.13;31.90;;;11.20;99.90;;;;;;5037678;28;20037;-44
2021/12/15 10:25:54;;;;;;;66.00;33.33;;;11.20;99.90;;;;;;5028049;28;20129;-43
2021/12/15 10:28:23;;;;;;;64.13;34.72;;;11.20;99.90;;;;;;5035823;28;20100;-43
2021/12/15 10:31:01;;;;;;;68.95;35.22;;;11.20;99.90;;;;;;5030312;28;20428;-43
2021/12/15 10:33:35;;;;;;;59.78;33.28;;;11.20;99.90;;;;;;5034306;28;20039;-44
2021/12/15 10:36:06;;;;;;;69.60;35.95;;;11.20;99.90;;;;;;5029878;28;20457;-43
2021/12/15 10:38:39;;;;;;;54.72;30.10;;;11.20;99.90;;;;;;5034274;28;20026;-43
2021/12/15 10:41:13;;;;;;;59.63;34.47;;;11.20;99.90;;;;;;5030284;28;20021;-44
2021/12/15 10:43:54;;;;;;;56.28;32.65;;;11.20;99.90;;;;;;5034121;28;20107;-44
2021/12/15 10:46:22;;;;;;;58.65;32.60;;;11.20;99.90;;;;;;5029473;28;20126;-43
2021/12/15 10:48:57;;;;;;;60.63;33.53;;;11.20;99.90;;;;;;5034021;28;20025;-44
2021/12/15 10:51:25;;;;;;;55.58;32.28;;;11.20;99.90;;;;;;5031320;28;20124;-42
2021/12/15 10:53:55;;;;;;;55.10;31.88;;;11.20;99.90;;;;;;5028708;28;20030;-44
2021/12/15 10:56:28;;;;;;;50.70;30.67;;;11.20;99.90;;;;;;5042999;28;20027;-43
2021/12/15 10:58:58;;;;;;;56.72;32.40;;;11.30;99.90;;;;;;5039436;28;20130;-43
2021/12/15 11:01:43;;;;;;;55.67;33.10;;;11.30;99.90;;;;;;5039130;28;20540;-44
2021/12/15 11:04:32;;;;;;;63.05;34.22;;;11.40;99.90;;;;;;5040554;28;20033;-43
2021/12/15 11:07:05;;;;;;;50.25;29.77;;;11.40;99.90;;;;;;5043308;28;20468;-44
2021/12/15 11:09:39;;;;;;;45.70;27.55;;;11.50;99.90;;;;;;5038098;28;20061;-42
2021/12/15 11:12:22;;;;;;;42.22;26.63;;;11.50;99.90;;;;;;5042569;28;20025;-43
2021/12/15 11:14:52;;;;;;;52.08;30.90;;;11.50;99.90;;;;;;5036843;28;20022;-44
2021/12/15 11:17:24;;;;;;;49.47;29.50;;;11.50;99.90;;;;;;5043377;28;20040;-42
2021/12/15 11:19:50;;;;;;;47.80;29.20;;;11.60;99.90;;;;;;5039110;28;20248;-44
2021/12/15 11:22:38;;;;;;;53.95;32.63;;;11.60;99.90;;;;;;5040668;28;20460;-44
2021/12/15 11:25:08;;;;;;;46.42;28.55;;;11.60;99.90;;;;;;5039545;28;20376;-43
2021/12/15 11:27:34;;;;;;;42.42;27.95;;;11.70;99.90;;;;;;5042675;28;20025;-44
2021/12/15 11:30:00;;;;;;;47.28;29.20;;;11.70;99.90;;;;;;5039869;28;20032;-44
2021/12/15 11:32:56;;;;;;;51.15;33.63;;;11.70;99.90;;;;;;5039394;28;20381;-44
2021/12/15 11:35:30;;;;;;;52.92;30.60;;;11.70;99.90;;;;;;5029330;28;20390;-43
2021/12/15 11:38:00;;;;;;;51.13;32.80;;;11.70;99.90;;;;;;5042401;28;20033;-44
2021/12/15 11:40:32;;;;;;;44.95;30.70;;;11.70;99.90;;;;;;5039302;28;20128;-43
2021/12/15 11:42:59;;;;;;;44.33;30.00;;;11.70;99.90;;;;;;5040180;28;20021;-43
2021/12/15 11:45:26;;;;;;;40.40;27.98;;;11.80;99.90;;;;;;5043316;28;20033;-43
2021/12/15 11:48:10;;;;;;;41.90;28.10;;;11.80;99.90;;;;;;5042521;28;20025;-43
2021/12/15 11:50:40;;;;;;;44.33;29.70;;;11.80;99.90;;;;;;5023180;28;20436;-43
2021/12/15 11:53:13;;;;;;;46.95;30.50;;;11.80;99.90;;;;;;5036719;28;20025;-44
2021/12/15 11:55:38;;;;;;;;;;;11.80;99.90;;;;;;5033995;28;20084;-43
2021/12/15 11:58:04;;;;;;;50.05;32.38;;;11.80;99.90;;;;;;5038069;28;19909;-43
2021/12/15 12:00:30;;;;;;;46.20;30.25;;;11.80;99.90;;;;;;5031419;28;20038;-44
2021/12/15 12:02:58;;;;;;;44.55;29.80;;;11.70;99.90;;;;;;5040750;28;20013;-43
2021/12/15 12:05:35;;;;;;;41.97;28.38;;;11.70;99.90;;;;;;5029523;28;20037;-44
2021/12/15 12:08:07;;;;;;;42.88;28.98;;;11.70;99.90;;;;;;5040662;28;20840;-42
2021/12/15 12:10:47;;;;;;;45.05;30.15;;;11.70;99.90;;;;;;5030570;28;20032;-44
2021/12/15 12:13:23;;;;;;;46.55;31.60;;;11.70;99.90;;;;;;5040682;28;20041;-45
2021/12/15 12:15:54;;;;;;;43.97;29.90;;;11.70;99.90;;;;;;5030059;28;20024;-44
2021/12/15 12:18:23;;;;;;;43.67;28.90;;;11.70;99.90;;;;;;5040349;28;20064;-44
2021/12/15 12:20:55;;;;;;;40.58;27.90;;;11.70;99.90;;;;;;5030608;28;20045;-44
2021/12/15 12:23:27;;;;;;;41.22;29.23;;;11.70;99.90;;;;;;5040728;28;20036;-44
2021/12/15 12:26:02;;;;;;;35.45;25.90;;;11.70;99.90;;;;;;5029252;28;20465;-44
2021/12/15 12:28:35;;;;;;;42.30;28.25;;;11.70;99.90;;;;;;5037544;28;20500;-42
2021/12/15 12:31:06;;;;;;;43.05;30.15;;;11.70;99.90;;;;;;5029612;28;20884;-44
2021/12/15 12:33:34;;;;;;;38.67;27.90;;;11.80;99.90;;;;;;5035822;28;20489;-43
2021/12/15 12:36:12;;;;;;;38.25;27.38;;;11.80;99.90;;;;;;5029179;28;20192;-44
2021/12/15 12:38:41;;;;;;;37.13;26.48;;;11.80;99.90;;;;;;5036690;28;20385;-42
2021/12/15 12:41:14;;;;;;;40.85;28.90;;;11.90;99.90;;;;;;5045814;28;20024;-43
2021/12/15 12:43:43;;;;;;;;;;;11.90;99.90;;;;;;5036412;28;20032;-43
2021/12/15 12:46:22;;;;;;;43.50;28.45;;;11.90;99.90;;;;;;5048443;28;19943;-43
2021/12/15 12:57:58;;;;;;;35.75;25.33;;;11.90;99.90;;;;;;5047416;28;20454;-45
2021/12/15 13:01:02;;;;;;;32.42;23.52;;;11.90;99.90;;;;;;5003031;28;20037;-43
2021/12/15 13:03:38;;;;;;;31.48;23.58;;;11.90;99.90;;;;;;4997804;28;20109;-43
2021/12/15 13:06:07;;;;;;;29.98;22.80;;;11.90;99.90;;;;;;5029511;28;20135;-43
2021/12/15 13:08:41;;;;;;;29.65;22.48;;;11.90;99.90;;;;;;5039276;28;20021;-43
2021/12/15 13:11:17;;;;;;;30.88;22.95;;;11.90;99.90;;;;;;5045132;28;20040;-44
2021/12/15 13:13:51;;;;;;;30.85;22.13;;;11.90;99.90;;;;;;5040190;28;20038;-43
2021/12/15 13:16:37;;;;;;;31.85;23.13;;;11.90;99.90;;;;;;5045224;28;20507;-43
2021/12/15 13:19:15;;;;;;;32.90;23.25;;;11.90;99.90;;;;;;5038531;28;20032;-44
2021/12/15 13:22:20;;;;;;;27.42;19.90;;;11.90;99.90;;;;;;5045719;28;20506;-43
2021/12/15 13:30:37;;;;;;;29.20;19.92;;;12.00;99.90;;;;;;5036773;28;20082;-43
2021/12/15 13:33:11;;;;;;;26.27;20.27;;;12.00;99.90;;;;;;5047457;28;20445;-45
2021/12/15 13:35:52;;;;;;;26.58;19.20;;;11.90;99.90;;;;;;5034110;28;20457;-43
2021/12/15 13:38:46;;;;;;;23.98;18.60;;;11.90;99.90;;;;;;5029199;28;20026;-43
2021/12/15 13:41:20;;;;;;;24.98;18.13;;;11.90;99.90;;;;;;5012991;28;20045;-42
2021/12/15 13:44:06;;;;;;;23.75;17.05;;;11.90;99.90;;;;;;5027925;28;20025;-42
2021/12/15 13:46:31;;;;;;;23.30;16.45;;;11.80;99.90;;;;;;5027632;28;20051;-43
2021/12/15 13:49:03;;;;;;;21.88;16.95;;;11.80;99.90;;;;;;5045956;28;20029;-43
2021/12/15 13:51:52;;;;;;;23.60;17.42;;;11.80;99.90;;;;;;5036259;28;20020;-44
2021/12/15 13:54:34;;;;;;;23.20;16.65;;;11.80;99.90;;;;;;5039481;28;20028;-43
2021/12/15 13:57:11;;;;;;;23.38;17.13;;;11.80;99.90;;;;;;5028649;28;20040;-43
2021/12/15 13:59:51;;;;;;;17.85;13.85;;;11.80;99.90;;;;;;5044891;28;20041;-44
2021/12/15 14:02:29;;;;;;;22.67;15.52;;;11.80;99.90;;;;;;5040367;28;20029;-43
2021/12/15 14:04:59;;;;;;;20.38;15.20;;;11.80;99.90;;;;;;5043274;28;20021;-43
2021/12/15 14:07:44;;;;;;;20.58;14.98;;;11.80;99.90;;;;;;5038653;28;20029;-43